Time;durP1;ratioP1;P1;durP2;ratioP2;P2;SDS_P1;SDS_P2;PMS_P1;PMS_P2;Temp;Humidity;BMP_temperature;BMP_pressure;BME280_temperature;BME280_humidity;BME280_pressure;Samples;Min_cycle;Max_cycle;Signal;HPM_P1;HPM_P2
2023/09/17 00:02:21;;;;;;;10.43;2.90;;;18.80;99.90;;;;;;5021777;28;20194;-75
2023/09/17 00:04:46;;;;;;;6.20;2.80;;;18.70;99.90;;;;;;5014320;28;20559;-75
2023/09/17 00:07:12;;;;;;;5.00;3.23;;;18.70;99.90;;;;;;5026923;28;20225;-75
2023/09/17 00:09:38;;;;;;;5.10;3.00;;;18.70;99.90;;;;;;5017291;28;20207;-76
2023/09/17 00:12:03;;;;;;;5.23;3.10;;;18.60;99.90;;;;;;5021064;28;20183;-75
2023/09/17 00:14:29;;;;;;;4.83;2.40;;;18.60;99.90;;;;;;5021104;28;20225;-76
2023/09/17 00:16:55;;;;;;;4.73;3.13;;;18.60;99.90;;;;;;5024701;28;20186;-75
2023/09/17 00:19:21;;;;;;;4.00;2.30;;;18.60;99.90;;;;;;5015812;28;20963;-74
2023/09/17 00:21:46;;;;;;;7.07;3.53;;;18.50;99.90;;;;;;5014380;28;20194;-75
2023/09/17 00:24:12;;;;;;;3.33;2.00;;;18.60;99.90;;;;;;5015904;28;20198;-75
2023/09/17 00:26:38;;;;;;;4.37;3.07;;;18.60;99.90;;;;;;5022042;28;20639;-75
2023/09/17 00:29:04;;;;;;;4.90;2.77;;;18.50;99.90;;;;;;5009990;28;20723;-75
2023/09/17 00:31:29;;;;;;;7.90;3.27;;;18.50;99.90;;;;;;5016202;28;20600;-75
2023/09/17 00:33:55;;;;;;;6.13;3.10;;;18.40;99.90;;;;;;5017598;28;20635;-75
2023/09/17 00:36:21;;;;;;;4.87;3.30;;;18.40;99.90;;;;;;5019994;28;20187;-75
2023/09/17 00:38:46;;;;;;;4.63;3.00;;;18.30;99.90;;;;;;5024249;28;20207;-76
2023/09/17 00:41:12;;;;;;;6.77;3.10;;;18.20;99.90;;;;;;5015992;28;20199;-75
2023/09/17 00:43:38;;;;;;;6.90;3.57;;;18.10;99.90;;;;;;5026042;28;20186;-75
2023/09/17 00:46:04;;;;;;;5.80;2.90;;;18.10;99.90;;;;;;5015373;28;20198;-75
2023/09/17 00:48:31;;;;;;;6.87;3.03;;;18.10;99.90;;;;;;5022572;28;20207;-75
2023/09/17 00:50:57;;;;;;;2.97;2.27;;;18.00;99.90;;;;;;5006924;28;20441;-75
2023/09/17 00:53:24;;;;;;;7.13;3.27;;;18.00;99.90;;;;;;5021449;28;20425;-74
2023/09/17 00:55:51;;;;;;;6.10;3.27;;;17.90;99.90;;;;;;5015876;28;20430;-75
2023/09/17 00:58:16;;;;;;;7.73;3.70;;;18.00;99.90;;;;;;5017720;28;20523;-74
2023/09/17 01:00:43;;;;;;;6.40;3.60;;;18.00;99.90;;;;;;5011365;28;20505;-74
2023/09/17 01:03:12;;;;;;;5.27;2.53;;;18.00;99.90;;;;;;5019049;28;20759;-75
2023/09/17 01:05:41;;;;;;;3.80;2.67;;;18.10;99.90;;;;;;5013022;28;20516;-74
2023/09/17 01:08:09;;;;;;;6.90;3.77;;;18.10;99.90;;;;;;5031605;28;20428;-75
2023/09/17 01:10:35;;;;;;;6.17;3.90;;;18.20;99.90;;;;;;5013185;28;20468;-75
2023/09/17 01:13:02;;;;;;;6.23;3.43;;;18.30;99.90;;;;;;5020442;28;20436;-75
2023/09/17 01:15:28;;;;;;;4.40;2.97;;;18.30;99.90;;;;;;5009673;28;20430;-75
2023/09/17 01:17:54;;;;;;;6.63;3.30;;;18.30;99.90;;;;;;5017068;28;20479;-75
2023/09/17 01:20:26;;;;;;;6.37;3.33;;;18.40;99.90;;;;;;5011581;28;20462;-73
2023/09/17 01:22:56;;;;;;;5.93;3.40;;;18.30;99.90;;;;;;5012080;28;20714;-74
2023/09/17 01:25:52;;;;;;;4.40;3.30;;;18.40;99.90;;;;;;5011881;28;20433;-75
2023/09/17 01:28:18;;;;;;;5.90;3.03;;;18.40;99.90;;;;;;5018249;28;20418;-75
2023/09/17 01:30:45;;;;;;;7.27;3.03;;;18.40;99.90;;;;;;5012372;28;20429;-75
2023/09/17 01:33:11;;;;;;;5.47;3.30;;;18.40;99.90;;;;;;5013350;28;20508;-75
2023/09/17 01:36:06;;;;;;;4.93;3.23;;;18.40;99.90;;;;;;5018676;28;20514;-74
2023/09/17 01:38:38;;;;;;;10.63;3.77;;;18.50;99.90;;;;;;5022659;28;20211;-75
2023/09/17 01:41:06;;;;;;;8.40;3.87;;;18.50;99.90;;;;;;5013802;28;20723;-74
2023/09/17 01:43:33;;;;;;;6.23;3.67;;;18.50;99.90;;;;;;5015136;28;20434;-75
2023/09/17 01:46:00;;;;;;;4.53;2.53;;;18.50;99.90;;;;;;5017680;28;20514;-74
2023/09/17 01:48:27;;;;;;;7.87;4.10;;;18.50;99.90;;;;;;5022436;28;20417;-75
2023/09/17 01:50:54;;;;;;;4.70;3.53;;;18.50;99.90;;;;;;5027112;28;20433;-75
2023/09/17 01:53:20;;;;;;;6.53;3.67;;;18.50;99.90;;;;;;5049438;28;20444;-76
2023/09/17 01:55:51;;;;;;;6.50;3.67;;;18.50;99.90;;;;;;5044605;28;20479;-76
2023/09/17 01:58:17;;;;;;;7.00;4.47;;;18.40;99.90;;;;;;5028306;28;20529;-75
2023/09/17 02:00:43;;;;;;;7.07;3.70;;;18.40;99.90;;;;;;5028419;28;20413;-75
2023/09/17 02:03:09;;;;;;;7.27;3.40;;;18.30;99.90;;;;;;5036268;28;20441;-75
2023/09/17 02:05:34;;;;;;;7.93;4.00;;;18.30;99.90;;;;;;5015967;28;20269;-74
2023/09/17 02:08:00;;;;;;;9.53;3.67;;;18.20;99.90;;;;;;5025798;28;20187;-74
2023/09/17 02:10:26;;;;;;;6.23;3.50;;;18.10;99.90;;;;;;5016794;28;20302;-75
2023/09/17 02:12:52;;;;;;;5.27;3.50;;;18.00;99.90;;;;;;5015301;28;20274;-75
2023/09/17 02:15:18;;;;;;;7.20;4.27;;;17.90;99.90;;;;;;5017341;28;20186;-75
2023/09/17 02:17:44;;;;;;;9.03;4.10;;;17.90;99.90;;;;;;5022437;28;20189;-75
2023/09/17 02:20:11;;;;;;;7.20;3.73;;;17.90;99.90;;;;;;5010651;28;20446;-75
2023/09/17 02:22:37;;;;;;;7.87;4.27;;;18.10;99.90;;;;;;5019200;28;20190;-74
2023/09/17 02:25:04;;;;;;;9.07;3.97;;;18.10;99.90;;;;;;5010535;28;20479;-75
2023/09/17 02:27:29;;;;;;;5.53;3.50;;;18.00;99.90;;;;;;5019978;28;20432;-75
2023/09/17 02:29:55;;;;;;;5.53;3.57;;;18.00;99.90;;;;;;5004716;28;20465;-75
2023/09/17 02:32:20;;;;;;;6.93;4.00;;;17.90;99.90;;;;;;5021729;28;20244;-73
2023/09/17 02:34:46;;;;;;;6.43;3.90;;;17.90;99.90;;;;;;5014717;28;20174;-75
2023/09/17 02:37:12;;;;;;;11.43;4.60;;;18.00;99.90;;;;;;5023116;28;20218;-75
2023/09/17 02:39:37;;;;;;;9.90;4.47;;;18.00;99.90;;;;;;5014360;28;20223;-75
2023/09/17 02:42:03;;;;;;;7.90;3.73;;;18.00;99.90;;;;;;5024784;28;20186;-75
2023/09/17 02:44:29;;;;;;;7.17;4.50;;;18.00;99.90;;;;;;5004253;28;20191;-73
2023/09/17 02:46:54;;;;;;;6.67;4.37;;;18.00;99.90;;;;;;5021072;28;20190;-75
2023/09/17 02:49:23;;;;;;;7.80;4.57;;;18.00;99.90;;;;;;5009862;28;20219;-73
2023/09/17 02:51:50;;;;;;;6.93;3.63;;;18.00;99.90;;;;;;5011510;28;20206;-75
2023/09/17 02:54:15;;;;;;;5.93;3.27;;;18.10;99.90;;;;;;5016274;28;20538;-75
2023/09/17 02:56:42;;;;;;;12.10;4.80;;;18.10;99.90;;;;;;5013578;28;20500;-75
2023/09/17 02:59:08;;;;;;;7.40;3.73;;;18.10;99.90;;;;;;5020645;28;20283;-75
2023/09/17 03:01:35;;;;;;;6.30;4.40;;;18.00;99.90;;;;;;5015718;28;20508;-75
2023/09/17 03:04:04;;;;;;;6.67;4.27;;;17.90;99.90;;;;;;5007130;28;20250;-76
2023/09/17 03:06:36;;;;;;;8.33;5.10;;;17.90;99.90;;;;;;5033297;28;20417;-75
2023/09/17 03:09:09;;;;;;;7.67;4.90;;;17.80;99.90;;;;;;5020039;28;20977;-76
2023/09/17 03:11:35;;;;;;;8.97;4.80;;;17.70;99.90;;;;;;5012882;28;20444;-76
2023/09/17 03:14:00;;;;;;;7.33;4.37;;;17.70;99.90;;;;;;5023017;28;20926;-76
2023/09/17 03:16:26;;;;;;;7.43;4.53;;;17.70;99.90;;;;;;5022707;28;20186;-76
2023/09/17 03:18:51;;;;;;;8.60;4.10;;;17.60;99.90;;;;;;5024797;28;20213;-76
2023/09/17 03:21:18;;;;;;;5.73;4.00;;;17.60;99.90;;;;;;5016441;28;20195;-75
2023/09/17 03:23:43;;;;;;;7.43;4.63;;;17.60;99.90;;;;;;5027912;28;20223;-75
2023/09/17 03:26:10;;;;;;;10.17;4.73;;;17.50;99.90;;;;;;5015451;28;20450;-76
2023/09/17 03:28:35;;;;;;;4.80;2.93;;;17.50;99.90;;;;;;5017249;28;20231;-75
2023/09/17 03:31:01;;;;;;;7.20;3.80;;;17.50;99.90;;;;;;5014705;28;20454;-76
2023/09/17 03:33:27;;;;;;;10.63;3.27;;;17.50;99.90;;;;;;5019623;28;20610;-77
2023/09/17 03:35:52;;;;;;;8.47;5.13;;;17.40;99.90;;;;;;5021329;28;20198;-76
2023/09/17 03:38:18;;;;;;;5.97;4.00;;;17.40;99.90;;;;;;5028583;28;20186;-75
2023/09/17 03:40:44;;;;;;;5.80;4.13;;;17.30;99.90;;;;;;5019851;28;20290;-76
2023/09/17 03:43:10;;;;;;;6.40;4.00;;;17.30;99.90;;;;;;5015895;28;20206;-76
2023/09/17 03:45:35;;;;;;;8.70;4.00;;;17.30;99.90;;;;;;5017326;28;20186;-75
2023/09/17 03:48:01;;;;;;;8.20;4.70;;;17.30;99.90;;;;;;5027074;28;20192;-76
2023/09/17 03:50:38;;;;;;;7.30;4.50;;;17.30;99.90;;;;;;5014417;28;20698;-76
2023/09/17 03:53:05;;;;;;;5.90;3.73;;;17.40;99.90;;;;;;5030639;28;20273;-75
2023/09/17 03:55:34;;;;;;;8.20;3.90;;;17.40;99.90;;;;;;5009016;28;20430;-76
2023/09/17 03:58:01;;;;;;;5.00;3.57;;;17.50;99.90;;;;;;5018544;28;20429;-76
2023/09/17 04:00:26;;;;;;;8.20;4.30;;;17.50;99.90;;;;;;5008998;28;20454;-76
2023/09/17 04:02:52;;;;;;;5.70;3.83;;;17.50;99.90;;;;;;5026020;28;20496;-76
2023/09/17 04:05:21;;;;;;;6.60;3.80;;;17.50;99.90;;;;;;5016062;28;20563;-76
2023/09/17 04:07:47;;;;;;;7.53;3.73;;;17.30;99.90;;;;;;5020276;28;20562;-76
2023/09/17 04:10:14;;;;;;;6.60;3.80;;;17.30;99.90;;;;;;5007722;28;20536;-76
2023/09/17 04:12:41;;;;;;;7.30;3.67;;;17.30;99.90;;;;;;5025958;28;20436;-76
2023/09/17 04:15:20;;;;;;;6.93;3.87;;;17.30;99.90;;;;;;5021761;28;20507;-76
2023/09/17 04:17:47;;;;;;;6.97;4.40;;;17.30;99.90;;;;;;5013279;28;20793;-75
2023/09/17 04:20:16;;;;;;;5.10;3.53;;;17.20;99.90;;;;;;5014403;28;20445;-76
2023/09/17 04:22:42;;;;;;;6.00;4.00;;;17.20;99.90;;;;;;5021682;28;20770;-76
2023/09/17 04:25:09;;;;;;;10.70;4.20;;;17.10;99.90;;;;;;5004311;28;20733;-76
2023/09/17 04:27:46;;;;;;;9.27;4.63;;;17.10;99.90;;;;;;5018143;28;20421;-76
2023/09/17 04:30:19;;;;;;;8.70;4.00;;;17.10;99.90;;;;;;5017662;28;20596;-76
2023/09/17 04:32:46;;;;;;;6.57;3.60;;;17.10;99.90;;;;;;5014063;28;20435;-76
2023/09/17 04:35:15;;;;;;;6.23;3.77;;;17.10;99.90;;;;;;5013268;28;20434;-76
2023/09/17 04:37:41;;;;;;;7.33;4.43;;;17.10;99.90;;;;;;5016266;28;20421;-76
2023/09/17 04:40:11;;;;;;;6.10;4.50;;;17.00;99.90;;;;;;5017362;28;20480;-76
2023/09/17 04:42:43;;;;;;;7.50;3.80;;;17.00;99.90;;;;;;5020475;28;20187;-76
2023/09/17 04:45:09;;;;;;;7.47;3.60;;;17.10;99.90;;;;;;5018511;28;20495;-76
2023/09/17 04:47:36;;;;;;;5.40;3.27;;;17.10;99.90;;;;;;5020534;28;20485;-74
2023/09/17 04:50:02;;;;;;;6.13;3.53;;;17.10;99.90;;;;;;5011463;28;20985;-76
2023/09/17 04:52:28;;;;;;;7.70;4.10;;;17.10;99.90;;;;;;5025292;28;20433;-74
2023/09/17 04:54:53;;;;;;;5.40;3.17;;;17.10;99.90;;;;;;5015831;28;20421;-77
2023/09/17 04:57:19;;;;;;;5.37;3.33;;;17.10;99.90;;;;;;5018720;28;20183;-74
2023/09/17 04:59:46;;;;;;;7.10;3.37;;;17.10;99.90;;;;;;5023527;28;20664;-76
2023/09/17 05:02:14;;;;;;;5.80;3.87;;;17.20;99.90;;;;;;5019199;28;20199;-74
2023/09/17 05:04:40;;;;;;;6.90;3.30;;;17.20;99.90;;;;;;5023303;28;20480;-74
2023/09/17 05:07:05;;;;;;;87.03;15.20;;;17.30;99.90;;;;;;5024248;28;20834;-76
2023/09/17 05:09:32;;;;;;;9.43;3.77;;;17.30;99.90;;;;;;5014489;28;20696;-76
2023/09/17 05:11:58;;;;;;;7.73;3.73;;;17.40;99.90;;;;;;5026776;28;20687;-75
2023/09/17 05:14:23;;;;;;;5.77;3.40;;;17.40;99.90;;;;;;5020785;28;20430;-73
2023/09/17 05:16:49;;;;;;;7.93;4.30;;;17.40;99.90;;;;;;5020602;28;20686;-76
2023/09/17 05:19:14;;;;;;;6.30;3.03;;;17.40;99.90;;;;;;5012775;28;20221;-75
2023/09/17 05:21:40;;;;;;;6.30;3.73;;;17.40;99.90;;;;;;5014362;28;20227;-76
2023/09/17 05:24:06;;;;;;;5.23;3.17;;;17.40;99.90;;;;;;5019341;28;20186;-75
2023/09/17 05:26:32;;;;;;;6.90;4.03;;;17.40;99.90;;;;;;5021665;28;20563;-76
2023/09/17 05:28:57;;;;;;;6.83;3.97;;;17.50;99.90;;;;;;5017104;28;20232;-76
2023/09/17 05:31:23;;;;;;;5.00;2.77;;;17.50;99.90;;;;;;5019206;28;20233;-76
2023/09/17 05:33:48;;;;;;;6.13;3.20;;;17.50;99.90;;;;;;5015328;28;20193;-76
2023/09/17 05:36:14;;;;;;;8.87;3.77;;;17.50;99.90;;;;;;5023617;28;20183;-77
2023/09/17 05:38:40;;;;;;;6.07;4.07;;;17.60;99.90;;;;;;5018601;28;20227;-76
2023/09/17 05:41:05;;;;;;;7.90;4.10;;;17.60;99.90;;;;;;5019607;28;20253;-76
2023/09/17 05:43:31;;;;;;;6.93;3.50;;;17.70;99.90;;;;;;5013682;28;20179;-76
2023/09/17 05:45:57;;;;;;;4.53;3.10;;;17.70;99.90;;;;;;5025301;28;20189;-77
2023/09/17 05:48:23;;;;;;;6.73;4.03;;;17.80;99.90;;;;;;5025976;28;20182;-75
2023/09/17 05:50:55;;;;;;;8.87;3.53;;;17.90;99.90;;;;;;5022563;28;20293;-76
2023/09/17 05:53:20;;;;;;;8.80;3.97;;;17.90;99.90;;;;;;5024413;28;20453;-77
2023/09/17 05:55:46;;;;;;;8.70;3.57;;;17.90;99.90;;;;;;5033133;28;20493;-78
2023/09/17 05:58:12;;;;;;;6.30;3.10;;;17.90;99.90;;;;;;5037723;28;20206;-77
2023/09/17 06:00:37;;;;;;;4.87;3.50;;;17.90;99.90;;;;;;5040712;28;20194;-77
2023/09/17 06:03:03;;;;;;;8.30;3.23;;;18.00;99.90;;;;;;5044490;28;20267;-77
2023/09/17 06:05:29;;;;;;;5.23;2.70;;;18.00;99.90;;;;;;5027456;28;20190;-75
2023/09/17 06:07:54;;;;;;;4.50;2.33;;;18.00;99.90;;;;;;5019287;28;20429;-76
2023/09/17 06:10:21;;;;;;;4.90;2.90;;;18.10;99.90;;;;;;5005204;28;20249;-75
2023/09/17 06:12:47;;;;;;;4.53;3.07;;;18.10;99.90;;;;;;5005393;28;20198;-75
2023/09/17 06:15:12;;;;;;;9.20;3.20;;;18.10;99.90;;;;;;5013177;28;20425;-75
2023/09/17 06:17:38;;;;;;;3.67;2.77;;;18.10;99.90;;;;;;5012803;28;20187;-76
2023/09/17 06:20:04;;;;;;;5.27;3.20;;;18.10;99.90;;;;;;5007872;28;20213;-76
2023/09/17 06:22:30;;;;;;;5.03;3.50;;;18.20;99.90;;;;;;5011662;28;20194;-76
2023/09/17 06:24:56;;;;;;;7.10;3.77;;;18.20;99.90;;;;;;5011210;28;20815;-77
2023/09/17 06:27:22;;;;;;;5.60;3.13;;;18.20;99.90;;;;;;5013263;28;20199;-77
2023/09/17 06:29:47;;;;;;;6.33;3.53;;;18.20;99.90;;;;;;5009816;28;20888;-77
2023/09/17 06:32:13;;;;;;;10.60;2.93;;;18.20;99.90;;;;;;5011448;28;20218;-76
2023/09/17 06:34:41;;;;;;;6.10;3.13;;;18.30;99.90;;;;;;5017472;28;20187;-76
2023/09/17 06:37:07;;;;;;;5.23;2.70;;;18.30;99.90;;;;;;5025245;28;20288;-79
2023/09/17 06:39:32;;;;;;;3.50;2.20;;;18.40;99.90;;;;;;5032054;28;20466;-78
2023/09/17 06:41:58;;;;;;;10.40;3.00;;;18.50;99.90;;;;;;5032632;28;20194;-77
2023/09/17 06:44:24;;;;;;;4.67;2.93;;;18.60;99.90;;;;;;5035252;28;20239;-78
2023/09/17 06:46:50;;;;;;;5.70;2.80;;;18.70;99.90;;;;;;5037026;28;20187;-76
2023/09/17 06:49:16;;;;;;;4.10;2.40;;;18.70;99.90;;;;;;5013714;28;20219;-76
2023/09/17 06:51:42;;;;;;;5.73;2.37;;;18.80;99.90;;;;;;5013998;28;20430;-77
2023/09/17 06:54:07;;;;;;;7.37;2.73;;;18.90;99.90;;;;;;5023021;28;20433;-76
2023/09/17 06:56:33;;;;;;;5.20;2.40;;;19.00;99.90;;;;;;5019051;28;20182;-77
2023/09/17 06:58:59;;;;;;;5.63;3.10;;;19.10;99.90;;;;;;5014179;28;20227;-75
2023/09/17 07:01:25;;;;;;;12.40;2.60;;;19.10;99.90;;;;;;5014887;28;20432;-75
2023/09/17 07:03:52;;;;;;;6.23;2.50;;;19.20;99.90;;;;;;5017589;28;20624;-76
2023/09/17 07:06:18;;;;;;;4.77;2.50;;;19.30;99.90;;;;;;5019425;28;20747;-77
2023/09/17 07:08:44;;;;;;;8.30;2.53;;;19.40;99.90;;;;;;5019244;28;20464;-75
2023/09/17 07:11:09;;;;;;;3.33;2.10;;;19.40;99.90;;;;;;5010552;28;20191;-75
2023/09/17 07:13:35;;;;;;;4.73;2.30;;;19.60;99.90;;;;;;5014883;28;20168;-75
2023/09/17 07:16:00;;;;;;;3.00;2.13;;;19.70;99.90;;;;;;5011503;28;20184;-77
2023/09/17 07:18:30;;;;;;;6.53;2.10;;;19.90;99.90;;;;;;5016679;28;20178;-75
2023/09/17 07:20:55;;;;;;;4.57;2.03;;;20.20;99.90;;;;;;5016520;28;20294;-75
2023/09/17 07:23:21;;;;;;;3.83;1.57;;;20.50;99.90;;;;;;5021109;28;20499;-75
2023/09/17 07:25:47;;;;;;;3.80;2.30;;;20.70;99.90;;;;;;5011935;28;20572;-76
2023/09/17 07:28:12;;;;;;;4.53;1.93;;;20.90;99.90;;;;;;5013980;28;20844;-74
2023/09/17 07:30:39;;;;;;;5.17;2.73;;;21.10;99.90;;;;;;5011106;28;20210;-75
2023/09/17 07:33:06;;;;;;;6.37;2.87;;;21.40;99.90;;;;;;5037222;28;20648;-76
2023/09/17 07:35:32;;;;;;;4.50;2.20;;;21.90;99.90;;;;;;5012087;28;20422;-77
2023/09/17 07:37:59;;;;;;;5.33;2.17;;;22.50;99.90;;;;;;5009731;28;20426;-77
2023/09/17 07:40:25;;;;;;;6.47;3.03;;;23.00;99.90;;;;;;5012065;28;20531;-79
2023/09/17 07:42:50;;;;;;;3.10;1.60;;;23.50;99.90;;;;;;5021265;28;20433;-78
2023/09/17 07:45:16;;;;;;;6.13;2.30;;;24.00;99.90;;;;;;5021108;28;20225;-76
2023/09/17 07:47:42;;;;;;;4.33;2.13;;;24.50;99.90;;;;;;5019002;28;20190;-77
2023/09/17 07:50:09;;;;;;;6.57;1.70;;;24.90;99.30;;;;;;5015553;28;20219;-78
2023/09/17 07:52:35;;;;;;;3.80;1.57;;;25.20;98.00;;;;;;5016577;28;20252;-77
2023/09/17 07:55:00;;;;;;;3.73;2.10;;;25.60;97.30;;;;;;5014278;28;20960;-77
2023/09/17 07:57:27;;;;;;;4.57;1.57;;;25.60;97.60;;;;;;5013160;28;20178;-77
2023/09/17 07:59:53;;;;;;;11.20;2.13;;;26.00;96.10;;;;;;5010373;28;20300;-77
2023/09/17 08:02:18;;;;;;;7.70;1.60;;;26.30;96.10;;;;;;5017984;28;20456;-76
2023/09/17 08:04:44;;;;;;;3.33;1.87;;;26.70;95.20;;;;;;5006627;28;20458;-77
2023/09/17 08:07:11;;;;;;;2.77;1.80;;;26.30;95.20;;;;;;5017760;28;20197;-79
2023/09/17 08:09:37;;;;;;;4.77;2.47;;;26.00;95.30;;;;;;5011139;28;20207;-77
2023/09/17 08:12:03;;;;;;;5.40;2.10;;;25.70;96.00;;;;;;5019524;28;20508;-77
2023/09/17 08:14:29;;;;;;;3.53;1.57;;;25.90;95.40;;;;;;5006404;28;20176;-77
2023/09/17 08:16:55;;;;;;;4.43;2.13;;;25.80;95.50;;;;;;5020783;28;20476;-80
2023/09/17 08:19:21;;;;;;;2.70;1.70;;;25.70;95.30;;;;;;5008717;28;20206;-77
2023/09/17 08:21:46;;;;;;;5.00;2.07;;;25.30;96.00;;;;;;5015598;28;20779;-77
2023/09/17 08:24:14;;;;;;;3.40;1.73;;;25.00;96.10;;;;;;5009927;28;20203;-77
2023/09/17 08:26:40;;;;;;;9.17;2.80;;;24.90;96.30;;;;;;5015266;28;20189;-76
2023/09/17 08:29:05;;;;;;;4.37;1.40;;;24.60;97.30;;;;;;5011883;28;20835;-76
2023/09/17 08:31:32;;;;;;;10.07;1.73;;;24.30;97.50;;;;;;5018728;28;20265;-77
2023/09/17 08:34:00;;;;;;;2.83;1.70;;;24.10;98.10;;;;;;5010952;28;20175;-74
2023/09/17 08:36:26;;;;;;;3.20;1.80;;;24.00;97.90;;;;;;5021333;28;20913;-77
2023/09/17 08:38:54;;;;;;;8.53;2.57;;;24.00;97.90;;;;;;5010129;28;20454;-77
2023/09/17 08:41:19;;;;;;;4.23;1.87;;;24.60;97.20;;;;;;5020983;28;20190;-76
2023/09/17 08:43:46;;;;;;;3.87;1.60;;;24.80;97.20;;;;;;5012238;28;20428;-77
2023/09/17 08:46:12;;;;;;;4.60;1.87;;;24.90;97.10;;;;;;5012261;28;20660;-76
2023/09/17 08:48:38;;;;;;;5.73;1.83;;;25.00;97.20;;;;;;5014588;28;20454;-76
2023/09/17 08:51:04;;;;;;;7.60;1.57;;;24.50;96.70;;;;;;5018813;28;20911;-77
2023/09/17 08:53:34;;;;;;;3.23;1.53;;;24.60;96.90;;;;;;5018790;28;20492;-77
2023/09/17 08:56:00;;;;;;;5.80;2.03;;;24.80;97.00;;;;;;5006412;28;20426;-76
2023/09/17 08:58:32;;;;;;;3.27;1.80;;;25.30;96.10;;;;;;5006825;28;20436;-78
2023/09/17 09:01:03;;;;;;;5.83;2.20;;;25.90;95.60;;;;;;5016711;28;20421;-79
2023/09/17 09:03:33;;;;;;;7.93;1.97;;;26.50;95.00;;;;;;5020532;28;20193;-77
2023/09/17 09:06:01;;;;;;;7.43;2.20;;;26.80;94.10;;;;;;5014104;28;20190;-78
2023/09/17 09:08:28;;;;;;;4.18;1.63;;;27.00;94.10;;;;;;5023752;28;20190;-77
2023/09/17 09:10:55;;;;;;;4.53;1.75;;;27.50;92.50;;;;;;5014248;28;20289;-77
2023/09/17 09:13:22;;;;;;;10.05;1.80;;;27.20;92.70;;;;;;5014127;28;20186;-78
2023/09/17 09:15:48;;;;;;;3.90;1.55;;;27.10;92.90;;;;;;5021240;28;20179;-78
2023/09/17 09:18:14;;;;;;;6.40;1.77;;;27.30;93.00;;;;;;5020499;28;20470;-74
2023/09/17 09:20:41;;;;;;;4.82;1.92;;;27.30;93.40;;;;;;5008118;28;20203;-80
2023/09/17 09:23:07;;;;;;;16.65;2.05;;;27.40;93.00;;;;;;5018034;28;20186;-78
2023/09/17 09:25:34;;;;;;;7.88;2.08;;;27.40;92.60;;;;;;5008826;28;20223;-78
2023/09/17 09:28:00;;;;;;;4.03;1.80;;;27.50;92.20;;;;;;5018615;28;20183;-78
2023/09/17 09:30:27;;;;;;;6.18;2.00;;;26.90;92.60;;;;;;5009925;28;20217;-78
2023/09/17 09:32:53;;;;;;;7.38;1.67;;;27.10;92.40;;;;;;5020089;28;20215;-78
2023/09/17 09:35:19;;;;;;;2.63;1.42;;;27.30;91.90;;;;;;5014700;28;20182;-80
2023/09/17 09:37:45;;;;;;;6.88;1.73;;;27.00;91.90;;;;;;5019334;28;20190;-79
2023/09/17 09:40:14;;;;;;;7.53;2.15;;;27.00;91.70;;;;;;5012231;28;20222;-78
2023/09/17 09:42:39;;;;;;;12.10;2.25;;;27.00;92.50;;;;;;5026023;28;20201;-77
2023/09/17 09:45:11;;;;;;;2.50;1.20;;;26.80;93.00;;;;;;5008696;28;20191;-78
2023/09/17 09:47:37;;;;;;;5.37;1.43;;;27.00;91.70;;;;;;5014756;28;20554;-80
2023/09/17 09:50:03;;;;;;;6.60;1.57;;;26.50;92.30;;;;;;5009880;28;20260;-80
2023/09/17 09:52:29;;;;;;;5.33;2.00;;;26.60;92.70;;;;;;5016064;28;20575;-75
2023/09/17 09:54:54;;;;;;;5.90;2.03;;;26.40;91.50;;;;;;5009801;28;20705;-79
2023/09/17 09:57:20;;;;;;;2.77;1.60;;;26.50;92.60;;;;;;5012807;28;20178;-75
2023/09/17 09:59:50;;;;;;;4.00;1.83;;;26.60;91.70;;;;;;5008703;28;20198;-75
2023/09/17 10:02:20;;;;;;;2.80;1.30;;;26.50;91.30;;;;;;5020573;28;20185;-75
2023/09/17 10:04:46;;;;;;;1.90;1.00;;;26.40;91.90;;;;;;5004523;28;20187;-75
2023/09/17 10:07:15;;;;;;;2.93;1.50;;;26.50;91.50;;;;;;5015394;28;20194;-75
2023/09/17 10:09:41;;;;;;;16.00;2.10;;;26.60;91.30;;;;;;5003897;28;20568;-75
2023/09/17 10:12:07;;;;;;;5.70;1.20;;;26.40;91.40;;;;;;5017124;28;20930;-76
2023/09/17 10:14:37;;;;;;;8.07;1.80;;;26.40;91.60;;;;;;5003965;28;20509;-76
2023/09/17 10:17:08;;;;;;;4.80;2.07;;;26.30;91.30;;;;;;5016482;28;20508;-75
2023/09/17 10:19:34;;;;;;;5.40;1.70;;;26.40;91.50;;;;;;5007596;28;20512;-78
2023/09/17 10:22:03;;;;;;;2.90;1.70;;;26.60;90.90;;;;;;5013634;28;20421;-76
2023/09/17 10:24:30;;;;;;;2.00;1.20;;;26.60;91.30;;;;;;5009389;28;20477;-77
2023/09/17 10:26:59;;;;;;;7.10;1.73;;;26.60;91.00;;;;;;5015193;28;20451;-76
2023/09/17 10:29:26;;;;;;;9.73;1.70;;;26.70;90.30;;;;;;5010840;28;20473;-74
2023/09/17 10:31:53;;;;;;;3.70;1.70;;;26.70;89.70;;;;;;5017137;28;20508;-76
2023/09/17 10:34:19;;;;;;;6.97;1.50;;;26.90;90.90;;;;;;5014079;28;20179;-76
2023/09/17 10:36:45;;;;;;;3.63;1.43;;;26.90;90.80;;;;;;5019673;28;20178;-76
2023/09/17 10:39:13;;;;;;;2.73;1.30;;;27.10;90.50;;;;;;5003854;28;20314;-75
2023/09/17 10:41:41;;;;;;;5.00;1.47;;;27.30;90.90;;;;;;5025393;28;20196;-79
2023/09/17 10:44:08;;;;;;;15.43;1.80;;;27.20;89.40;;;;;;5028392;28;20277;-76
2023/09/17 10:46:36;;;;;;;1.87;0.90;;;27.30;88.80;;;;;;5024503;28;20177;-84
2023/09/17 10:49:02;;;;;;;7.63;1.47;;;27.40;88.00;;;;;;5032409;28;20222;-83
2023/09/17 10:51:28;;;;;;;3.47;1.70;;;27.60;88.70;;;;;;5029284;28;20182;-82
2023/09/17 10:53:54;;;;;;;4.60;1.30;;;27.70;89.30;;;;;;5034447;28;20182;-83
2023/09/17 10:56:20;;;;;;;5.23;1.77;;;27.80;89.50;;;;;;5033931;28;20171;-83
2023/09/17 10:58:50;;;;;;;4.57;1.70;;;27.80;88.00;;;;;;5031253;28;20194;-76
2023/09/17 11:01:24;;;;;;;2.17;1.27;;;28.10;87.10;;;;;;5012359;28;20240;-76
2023/09/17 11:03:55;;;;;;;16.53;1.63;;;28.20;86.30;;;;;;5015946;28;20178;-76
2023/09/17 11:06:25;;;;;;;1.60;0.80;;;28.00;86.80;;;;;;5007777;28;20625;-76
2023/09/17 11:08:55;;;;;;;4.57;1.33;;;28.00;86.80;;;;;;5000357;28;20202;-77
2023/09/17 11:11:23;;;;;;;5.43;1.67;;;28.00;88.20;;;;;;5015456;28;20197;-76
2023/09/17 11:13:50;;;;;;;6.37;1.73;;;28.20;88.10;;;;;;5003357;28;20182;-77
2023/09/17 11:16:18;;;;;;;2.25;1.00;;;28.10;87.30;;;;;;5017732;28;20574;-76
2023/09/17 11:19:06;;;;;;;2.58;1.20;;;28.30;90.10;;;;;;5016227;28;20211;-78
2023/09/17 11:21:42;;;;;;;3.20;1.55;;;28.60;87.80;;;;;;5011606;28;20207;-77
2023/09/17 11:24:12;;;;;;;3.13;1.30;;;28.40;86.80;;;;;;5015026;28;20183;-77
2023/09/17 11:26:40;;;;;;;6.03;1.42;;;28.40;88.60;;;;;;5017837;28;20253;-77
2023/09/17 11:29:08;;;;;;;8.18;2.15;;;28.10;88.00;;;;;;5016378;28;20270;-77
2023/09/17 11:31:36;;;;;;;4.97;1.48;;;28.40;89.30;;;;;;5020821;28;20181;-78
2023/09/17 11:34:10;;;;;;;1.90;1.10;;;28.30;87.60;;;;;;5013853;28;20244;-73
2023/09/17 11:36:36;;;;;;;6.47;1.60;;;28.40;89.40;;;;;;5021427;28;20546;-78
2023/09/17 11:39:08;;;;;;;12.88;1.23;;;28.60;89.60;;;;;;5014067;28;20709;-78
2023/09/17 11:41:40;;;;;;;3.88;1.38;;;28.30;88.00;;;;;;5009264;28;20183;-78
2023/09/17 11:44:06;;;;;;;2.65;1.30;;;28.60;88.00;;;;;;5013310;28;20258;-78
2023/09/17 11:46:34;;;;;;;5.70;1.52;;;28.70;89.30;;;;;;5013079;28;20270;-80
2023/09/17 11:48:59;;;;;;;1.90;1.10;;;28.70;88.00;;;;;;5017539;28;20218;-77
2023/09/17 11:51:30;;;;;;;5.05;1.58;;;29.00;86.90;;;;;;5013057;28;20643;-79
2023/09/17 11:54:04;;;;;;;7.00;1.65;;;28.90;87.30;;;;;;5015224;28;20237;-77
2023/09/17 11:56:31;;;;;;;5.10;1.88;;;29.30;85.70;;;;;;5015331;28;20611;-78
2023/09/17 11:59:03;;;;;;;7.60;1.48;;;29.20;86.20;;;;;;5012769;28;20194;-78
2023/09/17 12:01:55;;;;;;;5.88;1.70;;;29.20;86.90;;;;;;5014723;28;20175;-78
2023/09/17 12:04:24;;;;;;;2.40;1.17;;;29.40;85.30;;;;;;5009035;28;20170;-77
2023/09/17 12:06:51;;;;;;;2.65;1.33;;;29.40;83.30;;;;;;5018831;28;20594;-77
2023/09/17 12:09:31;;;;;;;8.88;2.17;;;29.50;84.40;;;;;;5016184;28;20211;-78
2023/09/17 12:11:58;;;;;;;7.25;1.70;;;29.70;84.90;;;;;;5008461;28;20639;-79
2023/09/17 12:14:24;;;;;;;3.75;1.02;;;29.50;84.30;;;;;;5011280;28;20321;-77
2023/09/17 12:16:50;;;;;;;3.22;1.30;;;29.40;85.90;;;;;;5019668;28;20221;-76
2023/09/17 12:19:18;;;;;;;4.88;1.92;;;29.80;84.50;;;;;;5011083;28;20203;-77
2023/09/17 12:21:46;;;;;;;4.57;1.38;;;30.00;83.70;;;;;;5017004;28;20215;-77
2023/09/17 12:24:28;;;;;;;2.65;1.10;;;29.50;81.80;;;;;;5011271;28;20178;-77
2023/09/17 12:29:59;;;;;;;4.32;1.35;;;29.20;81.90;;;;;;5013337;28;20210;-76
2023/09/17 12:32:30;;;;;;;14.25;1.75;;;29.10;83.80;;;;;;5015256;28;20221;-78
2023/09/17 12:34:57;;;;;;;7.13;1.58;;;29.30;84.00;;;;;;5013679;28;20182;-76
2023/09/17 12:37:25;;;;;;;5.60;1.75;;;29.40;81.90;;;;;;5023543;28;20655;-76
2023/09/17 12:39:52;;;;;;;3.50;1.45;;;29.30;84.00;;;;;;5007613;28;20222;-76
2023/09/17 12:42:19;;;;;;;7.55;1.77;;;29.10;82.90;;;;;;5019680;28;20262;-76
2023/09/17 12:44:45;;;;;;;4.95;1.75;;;28.80;84.10;;;;;;5013581;28;20213;-78
2023/09/17 12:47:11;;;;;;;2.30;1.30;;;29.20;83.70;;;;;;5015142;28;20560;-78
2023/09/17 12:49:37;;;;;;;2.08;0.95;;;28.90;83.30;;;;;;5010404;28;20244;-78